Time;durP1;ratioP1;P1;durP2;ratioP2;P2;SDS_P1;SDS_P2;PMS_P1;PMS_P2;Temp;Humidity;BMP_temperature;BMP_pressure;BME280_temperature;BME280_humidity;BME280_pressure;Samples;Min_cycle;Max_cycle;Signal;HPM_P1;HPM_P2
2022/09/06 00:01:50;;;;;;;1.77;1.25;;;;;;;15.73;71.69;156474.28;5018531;28;20033;-75
2022/09/06 00:04:16;;;;;;;5.18;1.38;;;;;;;15.73;71.54;156474.28;5010061;28;20053;-75
2022/09/06 00:06:41;;;;;;;2.33;1.30;;;;;;;15.74;71.29;156475.56;5018428;28;20496;-76
2022/09/06 00:09:07;;;;;;;1.77;1.10;;;;;;;15.77;71.21;156483.31;5023910;28;20593;-75
2022/09/06 00:11:33;;;;;;;4.90;1.17;;;;;;;15.65;71.91;156452.34;5009935;28;20045;-76
2022/09/06 00:13:58;;;;;;;3.45;1.27;;;;;;;15.60;71.91;156439.50;5024186;28;20035;-75
2022/09/06 00:16:24;;;;;;;1.75;1.08;;;;;;;15.62;71.76;156444.66;5009074;28;20103;-75
2022/09/06 00:18:54;;;;;;;7.03;1.20;;;;;;;15.61;71.83;156442.06;5023367;28;20060;-75
2022/09/06 00:21:22;;;;;;;2.72;1.50;;;;;;;15.60;71.65;156440.78;5020158;28;20794;-75
2022/09/06 00:23:49;;;;;;;5.40;1.40;;;;;;;15.58;72.17;156436.91;5016952;28;20495;-73
2022/09/06 00:26:15;;;;;;;4.13;1.27;;;;;;;15.58;71.83;156435.63;5012893;28;20042;-75
2022/09/06 00:28:41;;;;;;;4.47;1.40;;;;;;;15.54;71.78;156426.63;5015881;28;20055;-72
2022/09/06 00:31:12;;;;;;;3.78;1.10;;;;;;;15.54;72.15;156425.34;5015921;28;20582;-72
2022/09/06 00:33:38;;;;;;;1.25;1.10;;;;;;;15.45;72.65;156402.19;5015786;28;20462;-72
2022/09/06 00:36:04;;;;;;;6.13;1.40;;;;;;;15.43;72.40;156397.03;4991967;28;20030;-75
2022/09/06 00:38:30;;;;;;;3.65;1.50;;;;;;;15.42;72.46;156395.72;5039979;28;20394;-76
2022/09/06 00:40:57;;;;;;;2.85;1.50;;;;;;;15.36;72.91;156381.56;5007509;28;20033;-75
2022/09/06 00:43:23;;;;;;;2.17;1.30;;;;;;;15.33;73.29;156372.56;5021981;28;20036;-74
2022/09/06 00:45:50;;;;;;;5.18;1.65;;;;;;;15.25;73.31;156352.00;5012713;28;20036;-75
2022/09/06 00:48:16;;;;;;;3.67;1.30;;;;;;;15.20;73.80;156340.44;5005426;28;20048;-74
2022/09/06 00:50:45;;;;;;;3.20;1.30;;;;;;;15.26;72.93;156354.59;5023450;28;20156;-76
2022/09/06 00:53:11;;;;;;;2.03;1.45;;;;;;;15.46;71.57;156404.72;5025276;28;20113;-74
2022/09/06 00:55:37;;;;;;;4.65;1.48;;;;;;;15.56;70.84;156430.50;5019996;28;20132;-75
2022/09/06 00:58:03;;;;;;;2.95;1.30;;;;;;;15.57;70.83;156433.03;4995458;28;20414;-73
2022/09/06 01:00:29;;;;;;;4.90;1.30;;;;;;;15.56;70.85;156431.78;5011282;28;20044;-74
2022/09/06 01:02:54;;;;;;;3.40;1.20;;;;;;;15.64;70.89;156449.78;4998942;28;20038;-75
2022/09/06 01:05:25;;;;;;;4.47;1.45;;;;;;;15.69;69.83;156462.63;4995911;28;20407;-73
2022/09/06 01:08:04;;;;;;;3.67;1.40;;;;;;;15.70;69.67;156465.22;4985448;28;20042;-73
2022/09/06 01:10:54;;;;;;;3.55;1.60;;;;;;;15.62;70.29;156445.94;5007569;28;20053;-75
2022/09/06 01:13:47;;;;;;;3.08;1.50;;;;;;;15.63;69.56;156447.19;5039727;28;20037;-76
2022/09/06 01:16:29;;;;;;;1.40;1.10;;;;;;;15.68;69.15;156460.09;5020584;28;20115;-73
2022/09/06 01:19:24;;;;;;;1.87;1.30;;;;;;;15.65;69.03;156453.66;5019345;28;20052;-74
2022/09/06 01:22:03;;;;;;;7.88;1.60;;;;;;;15.66;69.23;156456.22;5021323;28;20156;-74
2022/09/06 01:24:59;;;;;;;7.00;1.40;;;;;;;15.67;69.12;156457.47;5005574;28;20034;-74
2022/09/06 01:27:53;;;;;;;3.67;1.55;;;;;;;15.69;68.40;156463.94;5004400;28;20124;-74
2022/09/06 01:30:20;;;;;;;3.72;1.50;;;;;;;15.69;68.08;156463.94;5033873;28;20083;-74
2022/09/06 01:32:56;;;;;;;6.15;1.58;;;;;;;15.70;67.65;156466.50;5030866;28;20535;-76
2022/09/06 01:35:28;;;;;;;3.38;1.20;;;;;;;15.67;67.63;156457.47;5005873;28;20102;-75
2022/09/06 01:37:55;;;;;;;3.13;1.80;;;;;;;15.73;67.12;156474.28;5008373;28;20033;-75
2022/09/06 01:40:21;;;;;;;1.92;1.17;;;;;;;15.72;66.99;156471.63;5017477;28;20041;-76
2022/09/06 01:42:49;;;;;;;5.43;1.35;;;;;;;15.67;66.98;156458.81;5036601;28;20044;-73
2022/09/06 01:45:25;;;;;;;6.28;2.15;;;;;;;15.67;67.31;156457.47;5024663;28;20033;-74
2022/09/06 01:48:06;;;;;;;3.40;1.40;;;;;;;15.74;66.09;156476.84;5018527;28;20451;-73
2022/09/06 01:50:57;;;;;;;4.50;1.50;;;;;;;15.75;65.99;156478.16;5002184;28;20053;-74
2022/09/06 01:53:49;;;;;;;3.95;1.42;;;;;;;15.74;66.33;156475.56;5024540;28;20091;-74
2022/09/06 01:56:29;;;;;;;3.10;1.45;;;;;;;15.73;65.90;156474.28;5017352;28;20047;-74
2022/09/06 01:59:06;;;;;;;4.85;1.55;;;;;;;15.71;66.10;156467.81;5024843;28;20550;-74
2022/09/06 02:01:52;;;;;;;3.33;1.55;;;;;;;15.76;65.58;156482.03;5005562;28;20113;-74
2022/09/06 02:04:26;;;;;;;2.97;1.55;;;;;;;15.70;65.83;156465.22;4996752;28;20037;-74
2022/09/06 02:07:14;;;;;;;3.83;1.60;;;;;;;15.69;65.36;156462.63;5035676;28;21837;-75
2022/09/06 02:09:43;;;;;;;3.97;1.33;;;;;;;15.64;65.72;156451.06;5022956;28;20223;-74
2022/09/06 02:12:12;;;;;;;4.78;1.50;;;;;;;15.66;64.96;156456.22;5000143;28;20041;-74
2022/09/06 02:14:54;;;;;;;7.03;1.55;;;;;;;15.69;64.71;156462.63;5022361;28;20071;-73
2022/09/06 02:17:25;;;;;;;3.67;1.70;;;;;;;15.73;64.18;156474.28;5013174;28;20037;-74
2022/09/06 02:19:57;;;;;;;2.60;1.52;;;;;;;15.70;64.21;156466.50;5044233;28;20030;-74
2022/09/06 02:22:27;;;;;;;3.72;1.33;;;;;;;15.68;64.24;156460.09;5010137;28;20030;-74
2022/09/06 02:24:57;;;;;;;3.78;1.50;;;;;;;15.71;63.97;156469.09;5005918;28;20383;-73
2022/09/06 02:27:23;;;;;;;8.07;1.65;;;;;;;15.73;63.97;156472.97;5013350;28;20060;-73
2022/09/06 02:29:48;;;;;;;6.70;1.75;;;;;;;15.62;64.48;156445.94;5013291;28;20073;-74
2022/09/06 02:32:20;;;;;;;4.22;1.42;;;;;;;15.69;63.36;156462.63;5013405;28;20033;-73
2022/09/06 02:34:48;;;;;;;3.90;1.33;;;;;;;15.70;63.03;156465.22;5030521;28;20041;-75
2022/09/06 02:37:15;;;;;;;3.30;1.90;;;;;;;15.72;62.64;156471.63;5038247;28;20058;-75
2022/09/06 02:39:41;;;;;;;6.03;1.50;;;;;;;15.70;62.25;156466.50;5028565;28;20033;-76
2022/09/06 02:42:09;;;;;;;3.25;1.48;;;;;;;15.75;61.83;156479.44;4988197;28;20181;-75
2022/09/06 02:44:34;;;;;;;5.45;1.48;;;;;;;15.80;61.10;156489.72;5013554;28;20052;-75
2022/09/06 02:47:02;;;;;;;2.63;1.20;;;;;;;15.78;61.34;156485.84;5023787;28;20053;-76
2022/09/06 02:49:28;;;;;;;3.40;1.48;;;;;;;15.81;61.24;156493.59;5025982;28;20040;-76
2022/09/06 02:51:54;;;;;;;1.88;1.42;;;;;;;15.80;60.90;156491.00;5025578;28;20040;-76
2022/09/06 02:54:20;;;;;;;2.95;1.50;;;;;;;15.86;60.34;156505.16;4999315;28;20030;-76
2022/09/06 02:56:45;;;;;;;3.75;1.25;;;;;;;15.81;60.58;156492.31;5012030;28;20697;-76
2022/09/06 02:59:11;;;;;;;3.00;1.42;;;;;;;15.81;60.54;156493.59;5028565;28;20423;-76
2022/09/06 03:01:37;;;;;;;3.40;1.40;;;;;;;15.80;60.08;156491.00;5005452;28;20116;-75
2022/09/06 03:04:02;;;;;;;3.35;1.60;;;;;;;15.83;59.63;156498.72;5040821;28;20025;-74
2022/09/06 03:06:29;;;;;;;4.35;1.65;;;;;;;15.82;59.95;156494.88;5022114;28;20034;-75
2022/09/06 03:08:55;;;;;;;4.72;1.27;;;;;;;15.76;59.83;156480.72;4998473;28;20092;-76
2022/09/06 03:11:20;;;;;;;6.35;1.52;;;;;;;15.71;59.68;156467.81;5011426;28;20972;-75
2022/09/06 03:13:46;;;;;;;5.28;1.52;;;;;;;15.74;59.45;156475.56;5021752;28;20533;-76
2022/09/06 03:16:12;;;;;;;4.55;1.40;;;;;;;15.66;59.63;156456.22;5008067;28;20061;-76
2022/09/06 03:18:37;;;;;;;4.50;1.33;;;;;;;15.60;60.00;156439.50;5006981;28;20045;-75
2022/09/06 03:21:03;;;;;;;5.07;1.27;;;;;;;15.57;59.90;156434.31;4990125;28;20041;-75
2022/09/06 03:23:29;;;;;;;3.30;1.40;;;;;;;15.61;59.45;156443.34;5008930;28;20030;-75
2022/09/06 03:25:55;;;;;;;4.53;1.35;;;;;;;15.65;59.17;156453.66;5005895;28;20122;-74
2022/09/06 03:28:22;;;;;;;2.38;1.50;;;;;;;15.57;59.40;156434.31;5026403;28;20036;-74
2022/09/06 03:30:49;;;;;;;3.90;1.33;;;;;;;15.53;59.56;156422.75;5019664;28;20041;-74
2022/09/06 03:33:16;;;;;;;3.85;1.25;;;;;;;15.53;59.47;156424.03;5013878;28;20479;-75
2022/09/06 03:36:08;;;;;;;3.45;1.40;;;;;;;15.57;59.28;156433.03;5016775;28;20048;-75
2022/09/06 03:38:33;;;;;;;4.00;1.30;;;;;;;15.56;59.25;156431.78;5014249;28;20088;-74
2022/09/06 03:40:59;;;;;;;3.22;1.42;;;;;;;15.55;58.80;156427.91;5023241;28;20530;-75
2022/09/06 03:43:26;;;;;;;3.08;1.48;;;;;;;15.50;58.77;156415.03;5013422;28;20049;-74
2022/09/06 03:45:55;;;;;;;2.60;1.33;;;;;;;15.50;58.72;156415.03;5008783;28;20068;-75
2022/09/06 03:48:23;;;;;;;3.95;1.40;;;;;;;15.43;59.04;156397.03;4996598;28;20088;-74
2022/09/06 03:50:51;;;;;;;4.45;1.10;;;;;;;15.42;59.13;156395.72;5019836;28;20094;-74
2022/09/06 03:53:18;;;;;;;3.95;1.30;;;;;;;15.38;59.18;156386.72;5028640;28;20044;-74
2022/09/06 03:55:47;;;;;;;4.78;1.20;;;;;;;15.35;58.74;156379.03;5028623;28;20029;-74
2022/09/06 03:58:15;;;;;;;5.70;1.30;;;;;;;15.33;58.64;156373.88;5006678;28;20030;-74
2022/09/06 04:00:40;;;;;;;2.63;1.30;;;;;;;15.32;58.45;156370.00;5017470;28;20034;-74
2022/09/06 04:03:06;;;;;;;9.25;1.42;;;;;;;15.20;58.42;156340.44;5028671;28;20044;-74
2022/09/06 04:05:32;;;;;;;6.40;1.35;;;;;;;15.16;58.64;156330.09;5026459;28;20561;-74
2022/09/06 04:07:58;;;;;;;6.03;1.35;;;;;;;15.12;58.89;156321.09;5021828;28;20038;-74
2022/09/06 04:10:23;;;;;;;1.40;1.00;;;;;;;15.12;58.44;156321.09;4997818;28;20095;-74
2022/09/06 04:12:49;;;;;;;3.58;1.40;;;;;;;15.06;58.50;156304.38;5006979;28;20952;-72
2022/09/06 04:15:15;;;;;;;3.72;1.35;;;;;;;15.05;58.65;156301.78;5018237;28;20041;-74
2022/09/06 04:17:44;;;;;;;3.15;0.90;;;;;;;14.98;58.59;156285.09;5029309;28;20025;-75
2022/09/06 04:20:12;;;;;;;3.70;1.15;;;;;;;14.96;58.39;156279.97;5005927;28;20041;-75
2022/09/06 04:22:37;;;;;;;3.90;1.25;;;;;;;14.99;58.18;156288.97;5009526;28;20106;-75
2022/09/06 04:25:07;;;;;;;4.65;1.00;;;;;;;14.98;58.55;156285.09;5018973;28;20052;-76
2022/09/06 04:27:33;;;;;;;2.88;1.10;;;;;;;14.91;58.43;156267.06;5015569;28;20026;-74
2022/09/06 04:29:58;;;;;;;3.72;0.95;;;;;;;14.91;58.35;156267.06;5008542;28;20397;-74
2022/09/06 04:32:24;;;;;;;1.48;0.85;;;;;;;14.85;59.17;156252.94;5009309;28;20033;-74
2022/09/06 04:34:50;;;;;;;4.63;1.20;;;;;;;14.77;58.66;156233.63;5002181;28;20441;-74
2022/09/06 04:37:18;;;;;;;3.78;1.10;;;;;;;14.75;58.86;156228.50;5015249;28;20044;-74
2022/09/06 04:39:47;;;;;;;5.57;1.15;;;;;;;14.76;58.53;156229.78;5037990;28;21307;-73
2022/09/06 04:42:13;;;;;;;6.55;1.00;;;;;;;14.76;59.05;156231.03;5031282;28;20033;-75
2022/09/06 04:44:38;;;;;;;6.78;0.80;;;;;;;14.78;58.26;156234.91;5022077;28;20041;-75
2022/09/06 04:47:08;;;;;;;3.28;1.25;;;;;;;14.73;58.42;156223.34;5021039;28;20060;-74
2022/09/06 04:49:34;;;;;;;4.18;0.95;;;;;;;14.76;58.32;156229.78;5008553;28;20056;-74
2022/09/06 04:52:00;;;;;;;3.90;1.45;;;;;;;14.71;58.10;156218.22;5017406;28;20036;-76
2022/09/06 04:54:26;;;;;;;2.30;1.05;;;;;;;14.70;58.62;156214.34;5007969;28;20037;-76
2022/09/06 04:56:51;;;;;;;4.22;1.00;;;;;;;14.64;58.38;156198.94;5016864;28;20072;-74
2022/09/06 04:59:17;;;;;;;1.65;1.00;;;;;;;14.68;58.16;156209.22;5005143;28;20165;-74
2022/09/06 05:01:42;;;;;;;5.82;1.00;;;;;;;14.65;58.11;156201.47;5025901;28;20033;-76
2022/09/06 05:04:08;;;;;;;5.18;1.20;;;;;;;14.69;57.96;156211.75;5002222;28;20064;-74
2022/09/06 05:06:34;;;;;;;1.83;0.90;;;;;;;14.62;58.66;156195.06;4994461;28;20494;-74
2022/09/06 05:08:59;;;;;;;3.22;1.00;;;;;;;14.67;58.34;156207.88;5023179;28;20616;-74
2022/09/06 05:11:26;;;;;;;3.40;1.10;;;;;;;14.64;57.97;156200.19;5008102;28;20044;-75
2022/09/06 05:13:51;;;;;;;4.97;1.00;;;;;;;14.59;58.44;156187.31;5017023;28;20109;-75
2022/09/06 05:16:17;;;;;;;5.32;1.30;;;;;;;14.66;58.08;156205.34;4985869;28;20172;-74
2022/09/06 05:18:43;;;;;;;3.10;0.95;;;;;;;14.67;57.67;156207.88;4985914;28;20129;-74
2022/09/06 05:21:09;;;;;;;5.90;1.08;;;;;;;14.68;57.66;156210.47;5021375;28;20065;-75
2022/09/06 05:23:34;;;;;;;3.80;1.00;;;;;;;14.71;57.21;156218.22;5019713;28;20037;-74
2022/09/06 05:26:00;;;;;;;5.00;1.10;;;;;;;14.71;57.76;156218.22;5006306;28;20056;-73
2022/09/06 05:28:26;;;;;;;5.57;1.20;;;;;;;14.70;57.66;156215.63;5016312;28;20496;-74
2022/09/06 05:30:51;;;;;;;5.03;1.30;;;;;;;14.72;57.71;156220.75;5042306;28;20772;-75
2022/09/06 05:33:21;;;;;;;1.92;1.00;;;;;;;14.76;57.33;156229.78;5014314;28;20060;-74
2022/09/06 05:35:47;;;;;;;1.95;0.80;;;;;;;14.81;57.05;156242.66;5021051;28;20541;-73
2022/09/06 05:38:13;;;;;;;2.67;0.80;;;;;;;14.79;57.06;156238.78;5009451;28;20069;-76
2022/09/06 05:40:39;;;;;;;3.30;0.85;;;;;;;14.81;57.17;156241.38;5021173;28;20072;-75
2022/09/06 05:43:04;;;;;;;3.70;0.80;;;;;;;14.78;57.25;156234.91;5008639;28;20364;-74
2022/09/06 05:45:30;;;;;;;4.13;1.08;;;;;;;14.81;57.52;156241.38;5036790;28;20029;-76
2022/09/06 05:47:56;;;;;;;3.05;1.00;;;;;;;14.78;57.37;156236.19;5017136;28;20571;-74
2022/09/06 05:50:21;;;;;;;4.03;1.10;;;;;;;14.83;57.26;156247.78;5025856;28;20037;-75
2022/09/06 05:52:47;;;;;;;5.13;1.00;;;;;;;14.85;57.23;156251.66;5012975;28;20053;-74
2022/09/06 05:55:12;;;;;;;4.32;1.05;;;;;;;14.87;56.82;156258.06;5028988;28;20665;-74
2022/09/06 05:57:38;;;;;;;11.50;1.15;;;;;;;14.81;57.32;156242.66;5011883;28;20057;-74
2022/09/06 06:00:05;;;;;;;4.40;0.95;;;;;;;14.84;57.12;156249.06;5011118;28;20037;-72
2022/09/06 06:02:38;;;;;;;3.63;0.90;;;;;;;14.87;57.03;156258.06;5021950;28;20550;-75
2022/09/06 06:05:05;;;;;;;2.67;0.90;;;;;;;14.91;57.53;156268.34;5025574;28;20394;-75
2022/09/06 06:07:30;;;;;;;2.53;0.80;;;;;;;14.96;57.18;156281.22;5028149;28;20033;-75
2022/09/06 06:09:56;;;;;;;1.63;0.82;;;;;;;14.97;57.04;156282.50;5019546;28;20026;-74
2022/09/06 06:12:22;;;;;;;1.13;0.85;;;;;;;14.92;56.79;156270.94;5027643;28;20052;-75
2022/09/06 06:14:47;;;;;;;3.22;0.90;;;;;;;14.91;57.14;156268.34;5008736;28;20648;-75
2022/09/06 06:17:13;;;;;;;4.20;0.80;;;;;;;15.02;57.31;156294.09;5024525;28;20034;-76
2022/09/06 06:19:39;;;;;;;4.40;1.13;;;;;;;15.02;57.43;156294.09;5020423;28;20033;-77
2022/09/06 06:22:04;;;;;;;5.80;1.10;;;;;;;15.07;57.39;156308.25;5008387;28;20109;-76
2022/09/06 06:24:30;;;;;;;4.18;0.93;;;;;;;15.07;56.85;156306.94;5023860;28;20040;-75
2022/09/06 06:26:55;;;;;;;4.35;0.80;;;;;;;15.09;56.89;156312.13;5019779;28;20033;-73
2022/09/06 06:29:21;;;;;;;1.48;0.75;;;;;;;15.02;57.01;156295.38;5012792;28;20030;-73
2022/09/06 06:31:47;;;;;;;3.22;0.73;;;;;;;15.00;56.95;156290.25;5024258;28;20201;-73
2022/09/06 06:34:12;;;;;;;5.00;0.85;;;;;;;15.08;57.26;156309.53;5046442;28;20033;-75
2022/09/06 06:36:38;;;;;;;2.38;0.93;;;;;;;15.13;57.01;156323.69;5015797;28;20108;-76
2022/09/06 06:39:07;;;;;;;4.22;0.70;;;;;;;15.21;56.84;156341.72;5023937;28;20379;-75
2022/09/06 06:41:33;;;;;;;3.42;1.00;;;;;;;15.22;57.00;156345.56;5018253;28;20455;-75
2022/09/06 06:44:00;;;;;;;2.15;0.90;;;;;;;15.31;56.96;156367.41;5009197;28;20034;-76
2022/09/06 06:46:30;;;;;;;5.38;1.10;;;;;;;15.31;56.45;156367.41;5010041;28;20045;-75
2022/09/06 06:48:56;;;;;;;3.80;0.80;;;;;;;15.23;57.01;156348.13;5023755;28;20486;-77
2022/09/06 06:51:30;;;;;;;3.53;1.13;;;;;;;15.30;57.02;156364.88;5011609;28;20044;-77
2022/09/06 06:53:56;;;;;;;5.10;1.00;;;;;;;15.34;56.85;156375.16;5019657;28;20034;-76
2022/09/06 06:56:28;;;;;;;5.82;1.00;;;;;;;15.37;57.01;156384.16;5022420;28;20725;-76
2022/09/06 06:58:56;;;;;;;2.87;1.00;;;;;;;15.42;57.02;156395.72;5004345;28;20033;-73
2022/09/06 07:01:23;;;;;;;2.97;1.00;;;;;;;15.44;56.96;156400.88;5022275;28;20048;-75
2022/09/06 07:03:49;;;;;;;5.93;0.90;;;;;;;15.48;57.57;156409.88;5020211;28;20033;-76
2022/09/06 07:06:16;;;;;;;3.35;0.85;;;;;;;15.56;56.85;156431.78;5021065;28;20025;-75
2022/09/06 07:08:42;;;;;;;3.38;0.70;;;;;;;15.52;56.92;156421.50;5007618;28;20036;-76
2022/09/06 07:11:10;;;;;;;3.38;0.98;;;;;;;15.50;57.73;156416.34;5021891;28;20029;-76
2022/09/06 07:13:36;;;;;;;2.63;1.10;;;;;;;15.60;57.80;156439.50;5011547;28;20094;-76
2022/09/06 07:16:07;;;;;;;6.90;1.02;;;;;;;15.64;58.31;156449.78;4993780;28;20041;-76
2022/09/06 07:18:33;;;;;;;3.28;0.80;;;;;;;15.62;57.66;156445.94;5027957;28;20100;-75
2022/09/06 07:20:59;;;;;;;3.25;1.00;;;;;;;15.63;57.70;156447.19;5020409;28;20029;-76
2022/09/06 07:23:24;;;;;;;8.23;1.20;;;;;;;15.68;57.21;156461.34;5009514;28;20034;-75
2022/09/06 07:25:50;;;;;;;7.60;1.20;;;;;;;15.70;57.70;156465.22;5023166;28;20033;-74
2022/09/06 07:28:16;;;;;;;3.30;0.90;;;;;;;15.69;57.44;156462.63;5020566;28;20060;-74
2022/09/06 07:30:41;;;;;;;2.47;1.10;;;;;;;15.79;57.39;156487.16;5017803;28;20033;-75
2022/09/06 07:33:07;;;;;;;3.10;0.80;;;;;;;15.82;57.58;156494.88;5011381;28;20328;-75
2022/09/06 07:35:33;;;;;;;4.30;1.05;;;;;;;15.77;58.36;156484.56;5037134;28;20040;-74
2022/09/06 07:38:00;;;;;;;3.75;1.02;;;;;;;15.79;58.07;156487.16;5013644;28;20029;-74
2022/09/06 07:40:29;;;;;;;5.13;1.15;;;;;;;15.81;58.11;156493.59;5012455;28;20119;-76
2022/09/06 07:42:56;;;;;;;7.15;1.20;;;;;;;15.76;58.13;156480.72;5024973;28;20068;-75
2022/09/06 07:45:22;;;;;;;3.08;1.00;;;;;;;15.90;58.71;156516.75;4987938;28;20052;-75
2022/09/06 07:47:57;;;;;;;4.70;1.02;;;;;;;15.92;58.67;156521.91;5013199;28;20042;-75
2022/09/06 07:50:25;;;;;;;2.58;0.80;;;;;;;16.06;58.64;156555.38;5038766;28;20518;-75
2022/09/06 07:52:51;;;;;;;5.00;1.45;;;;;;;16.07;57.87;156557.97;5025822;28;20095;-77
2022/09/06 07:55:16;;;;;;;5.47;1.20;;;;;;;16.06;58.26;156555.38;5010207;28;20033;-75
2022/09/06 07:57:42;;;;;;;4.32;1.20;;;;;;;16.20;57.69;156590.09;5008173;28;20030;-76
2022/09/06 08:00:10;;;;;;;2.13;1.00;;;;;;;16.25;57.34;156604.28;4990526;28;20124;-75
2022/09/06 08:02:39;;;;;;;1.60;0.93;;;;;;;16.34;57.67;156627.44;5020417;28;20872;-76
2022/09/06 08:05:05;;;;;;;3.35;1.13;;;;;;;16.39;58.11;156639.06;5006594;28;20120;-76
2022/09/06 08:07:30;;;;;;;2.53;1.00;;;;;;;16.43;58.02;156648.06;4999751;28;20041;-76
2022/09/06 08:09:56;;;;;;;4.28;1.10;;;;;;;16.51;57.49;156668.66;5019122;28;20034;-75
2022/09/06 08:12:22;;;;;;;11.55;1.30;;;;;;;16.60;58.11;156691.84;5018085;28;20148;-75
2022/09/06 08:14:48;;;;;;;1.30;0.88;;;;;;;16.43;58.27;156649.34;5021791;28;20053;-75
2022/09/06 08:17:14;;;;;;;7.10;1.30;;;;;;;16.47;58.35;156658.38;5011523;28;20077;-75
2022/09/06 08:19:39;;;;;;;3.45;1.15;;;;;;;16.57;58.38;156684.09;5001873;28;20037;-76
2022/09/06 08:22:05;;;;;;;2.17;1.13;;;;;;;16.61;58.11;156694.41;5037753;28;20087;-76
2022/09/06 08:24:31;;;;;;;4.93;1.20;;;;;;;16.66;57.98;156707.28;5029645;28;20045;-75
2022/09/06 08:26:57;;;;;;;2.22;0.90;;;;;;;16.77;58.40;156733.06;5016363;28;20419;-75
2022/09/06 08:29:22;;;;;;;5.45;1.08;;;;;;;16.81;57.98;156744.63;5014944;28;20038;-75
2022/09/06 08:31:49;;;;;;;3.45;1.08;;;;;;;16.84;57.80;156751.09;5025660;28;20045;-74
2022/09/06 08:34:15;;;;;;;4.00;1.23;;;;;;;16.85;57.92;156754.97;5005996;28;20041;-76
2022/09/06 08:36:41;;;;;;;8.60;1.40;;;;;;;16.90;58.01;156766.59;5010366;28;20045;-76
2022/09/06 08:39:09;;;;;;;5.90;1.45;;;;;;;16.94;57.58;156776.88;5009988;28;20079;-76
2022/09/06 08:41:56;;;;;;;9.63;1.45;;;;;;;16.78;58.50;156736.88;5005925;28;20035;-77
2022/09/06 08:44:26;;;;;;;3.47;1.13;;;;;;;16.77;59.14;156734.34;5034221;28;20116;-76
2022/09/06 08:47:08;;;;;;;4.93;1.00;;;;;;;16.89;59.72;156764.00;5017920;28;20167;-78
2022/09/06 08:49:41;;;;;;;3.83;1.20;;;;;;;16.93;58.83;156775.63;5021945;28;20037;-75
2022/09/06 08:52:41;;;;;;;7.93;1.30;;;;;;;16.92;58.40;156771.75;5019135;28;20061;-75
2022/09/06 08:55:52;;;;;;;3.30;1.10;;;;;;;16.88;58.97;156761.44;5004058;28;20041;-74
2022/09/06 08:58:52;;;;;;;3.08;1.33;;;;;;;16.93;59.25;156774.28;5009851;28;20041;-75
2022/09/06 09:01:24;;;;;;;2.97;1.20;;;;;;;17.01;60.05;156794.91;4979220;28;20042;-75
2022/09/06 09:03:54;;;;;;;5.13;1.40;;;;;;;16.97;58.86;156783.31;5018225;28;21425;-76
2022/09/06 09:06:22;;;;;;;8.00;1.35;;;;;;;17.04;59.07;156802.63;5017450;28;20045;-77
2022/09/06 09:09:05;;;;;;;3.63;1.10;;;;;;;17.03;58.41;156798.81;5008857;28;20091;-76
2022/09/06 09:11:32;;;;;;;4.43;0.90;;;;;;;16.87;59.23;156760.13;5026228;28;20536;-76
2022/09/06 09:14:13;;;;;;;6.28;1.50;;;;;;;16.84;59.25;156751.09;5009374;28;20064;-75
2022/09/06 09:16:39;;;;;;;4.10;1.30;;;;;;;16.86;59.63;156757.56;5015731;28;20026;-76
2022/09/06 09:19:05;;;;;;;6.47;1.33;;;;;;;16.81;59.73;156743.34;5030776;28;20034;-76
2022/09/06 09:21:35;;;;;;;3.13;1.20;;;;;;;16.75;60.28;156729.19;5018968;28;20033;-76
2022/09/06 09:24:06;;;;;;;3.00;1.30;;;;;;;16.69;60.40;156713.75;5023274;28;20036;-76
2022/09/06 09:26:57;;;;;;;3.88;1.20;;;;;;;16.72;61.23;156721.44;5017870;28;20437;-76
2022/09/06 09:29:23;;;;;;;3.33;1.30;;;;;;;16.68;61.01;156712.44;5021291;28;20034;-75
2022/09/06 09:31:52;;;;;;;5.95;1.33;;;;;;;16.72;61.51;156722.72;5018768;28;20139;-76
2022/09/06 09:34:32;;;;;;;8.82;1.63;;;;;;;16.75;60.70;156729.19;5000004;28;20117;-75
2022/09/06 09:37:20;;;;;;;7.80;1.40;;;;;;;16.70;61.18;156717.56;5035339;28;20045;-76
2022/09/06 09:39:48;;;;;;;3.42;1.35;;;;;;;16.78;61.61;156735.63;5022038;28;20160;-75
2022/09/06 09:42:36;;;;;;;7.53;1.60;;;;;;;16.82;61.61;156747.28;5014604;28;20033;-76
2022/09/06 09:45:21;;;;;;;5.25;1.17;;;;;;;16.79;61.55;156739.47;5023596;28;20044;-76
2022/09/06 09:47:47;;;;;;;7.60;1.60;;;;;;;16.88;61.49;156761.44;5017681;28;20092;-75
2022/09/06 09:50:29;;;;;;;4.32;1.38;;;;;;;16.99;60.97;156788.47;5023460;28;20034;-76
2022/09/06 09:53:06;;;;;;;6.72;1.33;;;;;;;17.04;61.35;156802.63;5034899;28;20041;-76
2022/09/06 09:55:32;;;;;;;5.10;1.40;;;;;;;17.09;61.24;156814.25;5016536;28;20033;-74
2022/09/06 09:57:58;;;;;;;7.40;1.42;;;;;;;17.07;61.32;156809.09;5010657;28;20401;-74
2022/09/06 10:01:07;;;;;;;10.68;1.55;;;;;;;17.04;60.47;156801.34;5015403;28;22079;-74
2022/09/06 10:03:33;;;;;;;4.85;1.63;;;;;;;17.00;60.77;156792.31;5017207;28;20037;-75
2022/09/06 10:06:02;;;;;;;2.33;1.23;;;;;;;16.98;60.28;156787.19;5016398;28;20041;-73
2022/09/06 10:08:31;;;;;;;7.70;1.70;;;;;;;16.93;60.78;156774.28;5020728;28;20025;-74
2022/09/06 10:10:57;;;;;;;5.93;1.33;;;;;;;17.05;60.94;156803.94;5018571;28;20029;-74
2022/09/06 10:13:25;;;;;;;7.28;1.52;;;;;;;17.11;60.57;156819.38;5022953;28;20040;-72
2022/09/06 10:15:52;;;;;;;5.70;1.50;;;;;;;17.11;60.10;156820.66;5031195;28;20688;-75
2022/09/06 10:18:28;;;;;;;4.65;1.23;;;;;;;17.14;60.01;156827.13;5011357;28;20479;-76
2022/09/06 10:21:01;;;;;;;8.75;1.60;;;;;;;17.12;59.77;156823.25;5015896;28;20115;-76
2022/09/06 10:23:50;;;;;;;5.03;1.30;;;;;;;17.13;60.24;156825.81;5039604;28;20045;-75
2022/09/06 10:26:37;;;;;;;4.38;1.45;;;;;;;17.14;60.30;156827.13;5020816;28;20675;-75
2022/09/06 10:29:05;;;;;;;7.68;1.50;;;;;;;17.14;60.13;156827.13;5028509;28;20034;-73
2022/09/06 10:31:42;;;;;;;5.82;1.33;;;;;;;17.31;59.84;156869.66;5035807;28;20030;-73
2022/09/06 10:34:31;;;;;;;4.20;1.33;;;;;;;17.34;59.70;156876.06;5025316;28;20099;-75
2022/09/06 10:37:27;;;;;;;4.15;1.15;;;;;;;17.39;59.60;156890.22;5015393;28;20475;-75
2022/09/06 10:40:01;;;;;;;4.93;1.50;;;;;;;17.54;59.81;156927.59;5009783;28;20045;-75
2022/09/06 10:42:37;;;;;;;13.48;1.60;;;;;;;17.69;59.45;156964.97;5016453;28;20033;-74
2022/09/06 10:45:30;;;;;;;6.28;1.23;;;;;;;17.69;58.87;156964.97;5014270;28;20037;-74
2022/09/06 10:48:01;;;;;;;;;;;;;;;17.75;60.61;156980.41;5010516;28;20115;-75
2022/09/06 10:50:54;;;;;;;4.28;1.35;;;;;;;17.88;58.79;157012.69;5024407;28;20012;-75
2022/09/06 10:54:00;;;;;;;6.35;1.45;;;;;;;17.82;58.66;156998.47;5008515;28;20034;-76
2022/09/06 10:56:55;;;;;;;12.00;1.50;;;;;;;17.96;59.16;157033.28;5023023;28;20073;-75
2022/09/06 10:59:20;;;;;;;4.65;1.40;;;;;;;18.04;59.15;157053.88;5006117;28;20044;-75
2022/09/06 11:02:23;;;;;;;3.97;1.42;;;;;;;18.10;58.98;157068.06;5018433;28;20422;-75
2022/09/06 11:04:49;;;;;;;;;;;;;;;18.15;57.90;157080.97;5006809;28;20037;-74
2022/09/06 11:07:24;;;;;;;5.30;1.33;;;;;;;18.11;57.98;157069.38;4988688;28;20598;-77
2022/09/06 11:09:57;;;;;;;5.47;1.48;;;;;;;18.05;58.04;157055.22;5026173;28;20127;-75
2022/09/06 11:12:38;;;;;;;2.40;1.65;;;;;;;18.02;58.41;157047.47;4990945;28;20029;-75
2022/09/06 11:15:07;;;;;;;2.83;1.33;;;;;;;18.04;58.40;157053.88;5022609;28;20036;-75
2022/09/06 11:17:48;;;;;;;7.80;1.45;;;;;;;18.11;59.09;157069.38;5013064;28;20064;-75
2022/09/06 11:20:32;;;;;;;2.45;1.33;;;;;;;18.24;58.21;157104.16;5004740;28;20056;-76
2022/09/06 11:23:33;;;;;;;6.43;1.42;;;;;;;18.34;57.78;157127.38;5019919;28;20025;-76
2022/09/06 11:26:33;;;;;;;6.13;1.30;;;;;;;18.44;58.17;157153.13;4974093;28;20042;-75
2022/09/06 11:29:03;;;;;;;2.80;1.40;;;;;;;18.54;57.56;157178.94;5015215;28;20038;-75
2022/09/06 11:31:32;;;;;;;7.93;1.55;;;;;;;18.55;57.34;157181.50;5002019;28;20171;-75
2022/09/06 11:34:05;;;;;;;8.45;1.52;;;;;;;18.53;57.05;157176.34;5007503;28;20037;-73
2022/09/06 11:36:38;;;;;;;6.07;1.30;;;;;;;18.43;56.99;157150.56;5011380;28;20554;-72
2022/09/06 11:39:06;;;;;;;3.55;1.30;;;;;;;18.41;57.83;157145.44;5022617;28;20037;-74
2022/09/06 11:41:39;;;;;;;6.18;1.48;;;;;;;18.59;57.83;157190.53;5011736;28;20030;-75
2022/09/06 11:44:09;;;;;;;4.97;1.48;;;;;;;18.57;57.01;157186.69;5020518;28;20038;-76